createdAt,value
2018-03-06T00:01:50.084Z,9.50
2018-03-06T00:04:19.335Z,9.50
2018-03-06T00:06:47.955Z,9.50
2018-03-06T00:09:16.193Z,9.50
2018-03-06T00:11:44.477Z,9.40
2018-03-06T00:14:14.207Z,9.40
2018-03-06T00:16:42.458Z,9.40
2018-03-06T00:19:11.196Z,9.40
2018-03-06T00:24:09.651Z,9.40
2018-03-06T00:26:39.000Z,9.50
2018-03-06T00:29:07.236Z,9.50
2018-03-06T00:31:35.467Z,9.50
2018-03-06T00:34:04.774Z,9.50
2018-03-06T00:36:34.518Z,9.50
2018-03-06T00:39:03.522Z,9.50
2018-03-06T00:44:03.676Z,9.40
2018-03-06T00:46:31.914Z,9.40
2018-03-06T00:49:01.060Z,9.40
2018-03-06T00:51:30.061Z,9.40
2018-03-06T00:53:58.296Z,9.40
2018-03-06T00:56:29.244Z,9.30
2018-03-06T00:58:58.248Z,9.40
2018-03-06T01:01:26.486Z,9.40
2018-03-06T01:03:56.568Z,9.30
2018-03-06T01:06:24.796Z,9.40
2018-03-06T01:08:53.420Z,9.30
2018-03-06T01:11:23.018Z,9.30
2018-03-06T01:13:51.249Z,9.30
2018-03-06T01:16:20.253Z,9.30
2018-03-06T01:18:49.541Z,9.30
2018-03-06T01:21:17.776Z,9.30
2018-03-06T01:23:47.508Z,9.30
2018-03-06T01:26:15.950Z,9.30
2018-03-06T01:28:44.484Z,9.30
2018-03-06T01:31:12.716Z,9.30
2018-03-06T01:33:41.097Z,9.30
2018-03-06T01:36:10.092Z,9.30
2018-03-06T01:38:38.323Z,9.20
2018-03-06T01:41:07.560Z,9.20
2018-03-06T01:43:36.199Z,9.10
2018-03-06T01:46:04.819Z,9.20
2018-03-06T01:48:34.046Z,9.20
2018-03-06T01:51:03.412Z,9.20
2018-03-06T01:53:32.779Z,9.10
2018-03-06T01:56:04.460Z,9.10
2018-03-06T01:58:36.527Z,9.00
2018-03-06T02:01:05.380Z,9.00
2018-03-06T02:03:34.390Z,9.10
2018-03-06T02:06:03.398Z,9.10
2018-03-06T02:08:32.744Z,9.10
2018-03-06T02:16:00.844Z,9.10
2018-03-06T02:18:29.836Z,9.10
2018-03-06T02:20:58.841Z,9.10
2018-03-06T02:23:28.509Z,9.10
2018-03-06T02:25:56.740Z,9.20
2018-03-06T02:28:24.963Z,9.20
2018-03-06T02:30:53.352Z,9.30
2018-03-06T02:33:21.586Z,9.30
2018-03-06T02:35:49.826Z,9.20
2018-03-06T02:38:19.209Z,9.20
2018-03-06T02:40:47.436Z,9.30
2018-03-06T02:45:45.675Z,9.30
2018-03-06T02:48:13.908Z,9.40
2018-03-06T02:50:42.137Z,9.40
2018-03-06T02:53:10.684Z,9.30
2018-03-06T02:55:39.304Z,9.30
2018-03-06T02:58:07.541Z,9.30
2018-03-06T03:00:36.652Z,9.30
2018-03-06T03:03:04.881Z,9.20
2018-03-06T03:05:33.108Z,9.20
2018-03-06T03:08:03.118Z,9.20
2018-03-06T03:13:00.804Z,9.20
2018-03-06T03:15:29.900Z,9.20
2018-03-06T03:17:58.520Z,9.20
2018-03-06T03:22:57.185Z,9.10
2018-03-06T03:25:25.425Z,9.10
2018-03-06T03:27:53.656Z,9.10
2018-03-06T03:30:22.298Z,9.00
2018-03-06T03:32:51.292Z,9.00
2018-03-06T03:35:20.305Z,9.10
2018-03-06T03:37:48.696Z,9.20
2018-03-06T03:47:45.860Z,9.30
2018-03-06T03:50:14.239Z,9.30
2018-03-06T03:52:42.868Z,9.30
2018-03-06T03:55:11.097Z,9.30
2018-03-06T03:57:43.740Z,9.30
2018-03-06T04:00:12.364Z,9.30
2018-03-06T04:02:47.281Z,9.20
2018-03-06T04:05:15.508Z,9.20
2018-03-06T04:07:44.514Z,9.20
2018-03-06T04:10:13.376Z,9.20
2018-03-06T04:12:41.604Z,9.20
2018-03-06T04:15:09.842Z,9.20
2018-03-06T04:17:39.565Z,9.20
2018-03-06T04:20:07.792Z,9.20
2018-03-06T04:22:36.416Z,9.20
2018-03-06T04:25:06.528Z,9.20
2018-03-06T04:27:34.753Z,9.10
2018-03-06T04:30:03.763Z,9.10
2018-03-06T04:32:36.656Z,9.00
2018-03-06T04:35:04.891Z,9.00
2018-03-06T04:37:33.116Z,9.00
2018-03-06T04:40:02.300Z,8.90
2018-03-06T04:42:30.533Z,8.90
2018-03-06T04:47:28.746Z,9.00
2018-03-06T04:49:57.740Z,9.00
2018-03-06T04:52:25.968Z,9.00
2018-03-06T04:54:55.060Z,9.00
2018-03-06T04:57:23.692Z,9.00
2018-03-06T05:02:22.048Z,9.00
2018-03-06T05:04:56.724Z,9.00
2018-03-06T05:07:26.533Z,9.00
2018-03-06T05:09:55.523Z,9.00
2018-03-06T05:12:23.752Z,9.00
2018-03-06T05:14:52.356Z,9.10
2018-03-06T05:19:50.044Z,9.10
2018-03-06T05:22:19.188Z,9.10
2018-03-06T05:24:47.415Z,9.20
2018-03-06T05:27:16.419Z,9.20
2018-03-06T05:29:45.561Z,9.30
2018-03-06T05:32:14.556Z,9.30
2018-03-06T05:34:43.553Z,9.40
2018-03-06T05:39:45.832Z,9.40
2018-03-06T05:42:14.833Z,9.50
2018-03-06T05:44:43.828Z,9.50
2018-03-06T05:47:12.812Z,9.40
2018-03-06T05:49:42.180Z,9.40
2018-03-06T05:52:10.411Z,9.40
2018-03-06T05:54:41.070Z,9.30
2018-03-06T05:57:09.692Z,9.30
2018-03-06T05:59:37.929Z,9.30
2018-03-06T06:02:06.495Z,9.30
2018-03-06T06:04:34.732Z,9.20
2018-03-06T06:07:04.452Z,9.20
2018-03-06T06:12:06.548Z,9.20
2018-03-06T06:14:35.552Z,9.10
2018-03-06T06:17:04.549Z,9.10
2018-03-06T06:22:03.428Z,9.10
2018-03-06T06:24:31.669Z,9.10
2018-03-06T06:27:00.032Z,9.10
2018-03-06T06:29:28.263Z,9.20
2018-03-06T06:31:57.262Z,9.20
2018-03-06T06:34:26.028Z,9.20
2018-03-06T06:36:54.260Z,9.30
2018-03-06T06:39:22.498Z,9.30
2018-03-06T06:41:52.391Z,9.30
2018-03-06T06:44:20.621Z,9.30
2018-03-06T06:46:49.999Z,9.40
2018-03-06T06:49:18.900Z,9.40
2018-03-06T06:51:47.133Z,9.40
2018-03-06T06:54:16.876Z,9.40
2018-03-06T06:56:45.249Z,9.40
2018-03-06T06:59:13.500Z,9.40
2018-03-06T07:01:42.506Z,9.40
2018-03-06T07:04:12.372Z,9.40
2018-03-06T07:06:40.603Z,9.40
2018-03-06T07:09:13.536Z,9.40
2018-03-06T07:11:41.774Z,9.40
2018-03-06T07:14:11.152Z,9.40
2018-03-06T07:16:39.716Z,9.40
2018-03-06T07:21:39.535Z,9.40
2018-03-06T07:24:08.204Z,9.30
2018-03-06T07:26:37.571Z,9.40
2018-03-06T07:29:05.796Z,9.40
2018-03-06T07:31:34.168Z,9.40
2018-03-06T07:34:02.409Z,9.40
2018-03-06T07:36:30.646Z,9.40
2018-03-06T07:38:59.876Z,9.50
2018-03-06T07:41:28.108Z,9.60
2018-03-06T07:43:56.350Z,9.70
2018-03-06T07:46:25.689Z,9.70
2018-03-06T07:48:54.756Z,9.80
2018-03-06T07:51:22.924Z,9.90
2018-03-06T07:53:51.624Z,10.00
2018-03-06T07:56:19.864Z,10.10
2018-03-06T07:58:48.096Z,10.20
2018-03-06T08:01:16.484Z,10.20
2018-03-06T08:03:45.125Z,10.20
2018-03-06T08:06:14.124Z,10.20
2018-03-06T08:08:44.521Z,10.00
2018-03-06T08:11:12.958Z,10.00
2018-03-06T08:13:41.591Z,10.00
2018-03-06T08:16:09.978Z,9.90
2018-03-06T08:18:38.213Z,9.90
2018-03-06T08:21:06.850Z,10.00
2018-03-06T08:23:35.924Z,10.00
2018-03-06T08:26:04.177Z,10.10
2018-03-06T08:28:32.416Z,10.40
2018-03-06T08:31:00.978Z,10.70
2018-03-06T08:33:29.226Z,11.20
2018-03-06T08:35:57.447Z,11.60
2018-03-06T08:40:55.533Z,12.20
2018-03-06T08:43:23.773Z,12.60
2018-03-06T08:45:53.456Z,13.10
2018-03-06T08:48:22.460Z,13.50
2018-03-06T08:50:51.456Z,14.20
2018-03-06T08:53:20.004Z,14.90
2018-03-06T08:55:48.633Z,15.50
2018-03-06T08:58:17.633Z,15.80
2018-03-06T09:03:16.332Z,15.90
2018-03-06T09:05:44.959Z,16.60
2018-03-06T09:08:15.268Z,17.00
2018-03-06T09:10:44.273Z,17.10
2018-03-06T09:13:16.671Z,17.30
2018-03-06T09:15:44.908Z,17.80
2018-03-06T09:18:13.154Z,18.40
2018-03-06T09:20:42.024Z,19.20
2018-03-06T09:23:10.651Z,20.00
2018-03-06T09:25:38.880Z,20.80
2018-03-06T09:28:11.505Z,21.60
2018-03-06T09:30:40.133Z,21.60
2018-03-06T09:33:08.366Z,21.60
2018-03-06T09:38:13.304Z,21.50
2018-03-06T09:40:42.300Z,21.70
2018-03-06T09:43:10.535Z,21.70
2018-03-06T09:45:39.896Z,21.10
2018-03-06T09:48:08.524Z,20.00
2018-03-06T09:50:36.759Z,19.00
2018-03-06T09:53:06.264Z,18.20
2018-03-06T09:55:34.500Z,17.30
2018-03-06T09:58:02.732Z,17.10
2018-03-06T10:00:31.152Z,17.10
2018-03-06T10:02:59.420Z,17.10
2018-03-06T10:05:28.752Z,17.50
2018-03-06T10:07:58.055Z,18.40
2018-03-06T10:10:27.791Z,19.30
2018-03-06T10:15:26.384Z,21.20
2018-03-06T10:17:55.019Z,22.60
2018-03-06T10:20:23.248Z,24.00
2018-03-06T10:22:52.927Z,25.20
2018-03-06T10:25:22.300Z,25.50
2018-03-06T10:27:51.672Z,25.90
2018-03-06T10:30:20.920Z,26.00
2018-03-06T10:32:49.916Z,25.80
2018-03-06T10:35:18.152Z,25.20
2018-03-06T10:37:46.593Z,24.40
2018-03-06T10:40:14.827Z,23.50
2018-03-06T10:42:43.056Z,22.40
2018-03-06T10:45:11.448Z,21.70
2018-03-06T10:47:39.680Z,21.10
2018-03-06T10:50:08.680Z,20.70
2018-03-06T10:55:11.884Z,19.70
2018-03-06T10:57:41.610Z,19.10
2018-03-06T11:00:11.656Z,18.90
2018-03-06T11:02:42.831Z,18.80
2018-03-06T11:05:11.595Z,18.90
2018-03-06T11:07:39.828Z,18.70
2018-03-06T11:10:08.827Z,18.60
2018-03-06T11:15:06.668Z,18.80
2018-03-06T11:17:36.788Z,18.80
2018-03-06T11:20:05.445Z,18.60
2018-03-06T11:22:34.076Z,18.30
2018-03-06T11:25:02.310Z,17.90
2018-03-06T11:27:30.760Z,17.60
2018-03-06T11:29:59.760Z,17.40
2018-03-06T11:32:28.760Z,17.40
2018-03-06T11:34:57.408Z,17.40
2018-03-06T11:39:55.865Z,18.20
2018-03-06T11:42:24.388Z,18.30
2018-03-06T11:44:52.997Z,18.70
2018-03-06T11:47:21.220Z,19.30
2018-03-06T11:49:49.764Z,19.70
2018-03-06T11:52:17.946Z,19.80
2018-03-06T11:54:46.168Z,20.20
2018-03-06T11:57:16.228Z,20.60
2018-03-06T11:59:44.464Z,20.90
2018-03-06T12:02:12.696Z,21.40
2018-03-06T12:04:42.075Z,21.90
2018-03-06T12:07:16.361Z,22.40
2018-03-06T12:09:45.884Z,22.70
2018-03-06T12:12:14.121Z,23.00
2018-03-06T12:14:43.124Z,23.30
2018-03-06T12:17:12.788Z,23.30
2018-03-06T12:19:43.284Z,23.00
2018-03-06T12:22:11.739Z,22.80
2018-03-06T12:24:41.108Z,22.60
2018-03-06T12:27:09.340Z,22.40
2018-03-06T12:29:38.868Z,21.90
2018-03-06T12:32:07.096Z,21.70
2018-03-06T12:34:36.101Z,21.90
2018-03-06T12:37:06.333Z,22.10
2018-03-06T12:39:34.568Z,22.50
2018-03-06T12:42:03.569Z,23.00
2018-03-06T12:44:35.852Z,23.50
2018-03-06T12:47:04.089Z,23.70
2018-03-06T12:49:33.088Z,23.80
2018-03-06T12:52:02.327Z,23.60
2018-03-06T12:54:31.324Z,23.10
2018-03-06T12:57:01.068Z,23.20
2018-03-06T12:59:29.442Z,23.30
2018-03-06T13:01:57.676Z,23.50
2018-03-06T13:04:26.672Z,23.80
2018-03-06T13:06:55.052Z,24.00
2018-03-06T13:09:23.281Z,24.60
2018-03-06T13:11:51.565Z,25.30
2018-03-06T13:14:22.427Z,25.80
2018-03-06T13:16:51.057Z,26.40
2018-03-06T13:19:19.288Z,26.50
2018-03-06T13:21:48.711Z,26.20
2018-03-06T13:24:17.336Z,25.90
2018-03-06T13:26:46.331Z,25.60
2018-03-06T13:29:16.296Z,25.50
2018-03-06T13:31:44.923Z,25.90
2018-03-06T13:34:13.162Z,26.30
2018-03-06T13:36:42.312Z,26.70
2018-03-06T13:39:10.544Z,26.90
2018-03-06T13:41:38.781Z,27.20
2018-03-06T13:44:08.056Z,26.80
2018-03-06T13:46:36.289Z,26.40
2018-03-06T13:49:04.520Z,26.10
2018-03-06T13:51:32.897Z,26.20
2018-03-06T13:54:01.900Z,26.50
2018-03-06T13:56:30.136Z,26.90
2018-03-06T13:58:59.284Z,27.30
2018-03-06T14:01:31.692Z,27.50
2018-03-06T14:06:36.064Z,27.60
2018-03-06T14:09:04.291Z,27.30
2018-03-06T14:14:03.344Z,26.00
2018-03-06T14:16:31.974Z,25.10
2018-03-06T14:19:00.205Z,24.30
2018-03-06T14:21:28.576Z,23.40
2018-03-06T14:26:27.308Z,22.20
2018-03-06T14:28:56.864Z,21.60
2018-03-06T14:31:25.096Z,21.00
2018-03-06T14:33:53.328Z,20.60
2018-03-06T14:36:22.113Z,20.50
2018-03-06T14:38:50.736Z,20.40
2018-03-06T14:41:18.973Z,20.20
2018-03-06T14:43:51.649Z,20.10
2018-03-06T14:46:19.880Z,19.80
2018-03-06T14:48:49.256Z,19.50
2018-03-06T14:51:18.139Z,19.30
2018-03-06T14:56:15.839Z,19.10
2018-03-06T14:58:44.746Z,18.90
2018-03-06T15:03:42.378Z,18.40
2018-03-06T15:06:13.176Z,18.20
2018-03-06T15:08:42.176Z,18.00
2018-03-06T15:11:11.181Z,17.90
2018-03-06T15:13:40.696Z,17.80
2018-03-06T15:16:08.936Z,17.60
2018-03-06T15:18:37.162Z,17.50
2018-03-06T15:21:07.052Z,17.40
2018-03-06T15:23:35.288Z,17.30
2018-03-06T15:26:05.776Z,17.20
2018-03-06T15:28:34.657Z,17.10
2018-03-06T15:31:03.289Z,17.00
2018-03-06T15:33:31.520Z,16.90
2018-03-06T15:35:59.892Z,16.80
2018-03-06T15:38:28.133Z,16.70
2018-03-06T15:40:56.367Z,16.60
2018-03-06T15:43:26.200Z,16.50
2018-03-06T15:45:55.947Z,16.40
2018-03-06T15:50:56.848Z,16.20
2018-03-06T15:53:26.211Z,16.10
2018-03-06T15:55:54.445Z,16.00
2018-03-06T15:58:22.900Z,16.00
2018-03-06T16:00:52.640Z,15.90
2018-03-06T16:03:21.640Z,15.80
2018-03-06T16:08:24.187Z,15.60
2018-03-06T16:10:53.919Z,15.50
2018-03-06T16:13:23.664Z,15.40
2018-03-06T16:15:52.304Z,15.40
2018-03-06T16:20:49.996Z,15.20
2018-03-06T16:23:19.748Z,15.10
2018-03-06T16:25:47.981Z,15.10
2018-03-06T16:28:16.491Z,15.00
2018-03-06T16:30:46.311Z,14.90
2018-03-06T16:33:14.624Z,14.90
2018-03-06T16:35:42.864Z,14.80
2018-03-06T16:38:11.664Z,14.70
2018-03-06T16:40:40.293Z,14.70
2018-03-06T16:43:08.523Z,14.60
2018-03-06T16:45:38.175Z,14.50
2018-03-06T16:48:06.805Z,14.50
2018-03-06T16:50:35.041Z,14.40
2018-03-06T16:53:04.110Z,14.40
2018-03-06T16:55:33.111Z,14.30
2018-03-06T17:00:31.475Z,14.20
2018-03-06T17:03:01.212Z,14.10
2018-03-06T17:05:29.444Z,14.00
2018-03-06T17:07:59.669Z,13.90
2018-03-06T17:10:27.902Z,13.80
2018-03-06T17:12:56.136Z,13.80
2018-03-06T17:15:25.900Z,13.70
2018-03-06T17:17:55.267Z,13.60
2018-03-06T17:20:24.263Z,13.60
2018-03-06T17:22:52.770Z,13.50
2018-03-06T17:27:50.461Z,13.40
2018-03-06T17:30:20.846Z,13.30
2018-03-06T17:32:49.842Z,13.30
2018-03-06T17:37:47.708Z,13.30
2018-03-06T17:42:45.399Z,13.20
2018-03-06T17:45:14.797Z,13.20
2018-03-06T17:47:43.428Z,13.20
2018-03-06T17:52:41.652Z,13.10
2018-03-06T17:55:09.885Z,13.10
2018-03-06T17:57:38.116Z,13.10
2018-03-06T18:00:07.340Z,13.10
2018-03-06T18:02:35.968Z,13.00
2018-03-06T18:05:04.204Z,13.00
2018-03-06T18:07:32.760Z,13.00
2018-03-06T18:10:02.504Z,13.00
2018-03-06T18:12:30.732Z,13.00
2018-03-06T18:14:59.217Z,13.00
2018-03-06T18:19:56.909Z,12.90
2018-03-06T18:24:59.624Z,12.80
2018-03-06T18:27:27.858Z,12.80
2018-03-06T18:29:56.096Z,12.80
2018-03-06T18:32:24.781Z,12.80
2018-03-06T18:34:53.416Z,12.80
2018-03-06T18:37:21.688Z,12.70
2018-03-06T18:39:50.476Z,12.60
2018-03-06T18:42:19.843Z,12.60
2018-03-06T18:44:48.093Z,12.60
2018-03-06T18:47:17.645Z,12.60
2018-03-06T18:49:58.572Z,12.60
2018-03-06T18:52:26.952Z,12.50
2018-03-06T18:54:56.697Z,12.50
2018-03-06T18:57:26.435Z,12.50
2018-03-06T19:03:09.508Z,12.40
2018-03-06T19:08:23.377Z,12.40
2018-03-06T19:10:51.608Z,12.30
2018-03-06T19:13:19.849Z,12.30
2018-03-06T19:15:48.219Z,12.20
2018-03-06T19:18:16.456Z,12.20
2018-03-06T19:20:45.456Z,12.20
2018-03-06T19:25:44.640Z,12.20
2018-03-06T19:28:12.873Z,12.20
2018-03-06T19:30:42.121Z,12.20
2018-03-06T19:33:10.648Z,12.20
2018-03-06T19:35:38.876Z,12.20
2018-03-06T19:38:07.256Z,12.20
2018-03-06T19:40:35.488Z,12.10
2018-03-06T19:43:04.492Z,12.10
2018-03-06T19:45:33.036Z,12.10
2018-03-06T19:48:01.263Z,12.10
2018-03-06T19:50:29.499Z,12.10
2018-03-06T19:52:59.739Z,12.00
2018-03-06T19:55:27.979Z,12.00
2018-03-06T19:57:56.213Z,12.00
2018-03-06T20:00:24.760Z,12.00
2018-03-06T20:02:53.390Z,12.00
2018-03-06T20:07:52.132Z,11.90
2018-03-06T20:10:21.525Z,11.90
2018-03-06T20:12:49.749Z,11.90
2018-03-06T20:15:19.340Z,11.90
2018-03-06T20:17:47.969Z,11.80
2018-03-06T20:20:16.209Z,11.80
2018-03-06T20:22:45.448Z,11.80
2018-03-06T20:25:20.212Z,11.80
2018-03-06T20:27:50.432Z,11.80
2018-03-06T20:30:25.140Z,11.80
2018-03-06T20:33:02.413Z,11.70
2018-03-06T20:35:34.184Z,11.70
2018-03-06T20:38:03.336Z,11.70
2018-03-06T20:40:32.764Z,11.70
2018-03-06T20:43:01.773Z,11.70
2018-03-06T20:50:46.059Z,11.60
2018-03-06T20:53:19.868Z,11.60
2018-03-06T20:55:49.117Z,11.60
2018-03-06T20:58:17.744Z,11.60
2018-03-06T21:00:45.980Z,11.60
2018-03-06T21:03:16.382Z,11.50
2018-03-06T21:08:14.085Z,11.50
2018-03-06T21:10:42.461Z,11.50
2018-03-06T21:13:10.700Z,11.50
2018-03-06T21:15:38.936Z,11.40
2018-03-06T21:18:08.040Z,11.40
2018-03-06T21:20:36.664Z,11.40
2018-03-06T21:23:05.664Z,11.40
2018-03-06T21:25:34.682Z,11.40
2018-03-06T21:28:02.920Z,11.40
2018-03-06T21:30:31.548Z,11.40
2018-03-06T21:33:00.749Z,11.40
2018-03-06T21:35:29.387Z,11.40
2018-03-06T21:37:58.636Z,11.30
2018-03-06T21:40:27.288Z,11.30
2018-03-06T21:42:55.924Z,11.30
2018-03-06T21:45:24.555Z,11.20
2018-03-06T21:47:54.813Z,11.30
2018-03-06T21:50:23.045Z,11.20
2018-03-06T21:52:51.292Z,11.20
2018-03-06T21:55:19.673Z,11.20
2018-03-06T21:57:48.308Z,11.20
2018-03-06T22:00:16.940Z,11.20
2018-03-06T22:02:45.615Z,11.10
2018-03-06T22:05:13.864Z,11.10
2018-03-06T22:07:42.868Z,11.10
2018-03-06T22:10:11.344Z,11.10
2018-03-06T22:12:39.588Z,11.10
2018-03-06T22:15:07.835Z,11.00
2018-03-06T22:17:38.809Z,11.00
2018-03-06T22:20:07.449Z,11.00
2018-03-06T22:22:35.694Z,10.90
2018-03-06T22:25:04.438Z,10.90
2018-03-06T22:27:32.670Z,10.80
2018-03-06T22:30:00.901Z,10.80
2018-03-06T22:32:29.952Z,10.70
2018-03-06T22:34:58.193Z,10.70
2018-03-06T22:37:27.196Z,10.60
2018-03-06T22:39:56.289Z,10.60
2018-03-06T22:42:25.301Z,10.60
2018-03-06T22:44:54.681Z,10.50
2018-03-06T22:47:23.486Z,10.40
2018-03-06T22:52:23.080Z,10.30
2018-03-06T22:54:52.177Z,10.30
2018-03-06T22:57:21.185Z,10.20
2018-03-06T22:59:49.428Z,10.20
2018-03-06T23:02:18.363Z,10.10
2018-03-06T23:04:46.600Z,10.10
2018-03-06T23:07:15.608Z,10.10
2018-03-06T23:09:43.993Z,10.00
2018-03-06T23:12:13.019Z,10.00
2018-03-06T23:14:42.031Z,9.90
2018-03-06T23:17:11.681Z,9.90
2018-03-06T23:19:39.930Z,9.80
2018-03-06T23:22:08.179Z,9.80
2018-03-06T23:24:37.532Z,9.70
2018-03-06T23:27:06.543Z,9.70
2018-03-06T23:29:34.791Z,9.70
2018-03-06T23:32:04.156Z,9.60
2018-03-06T23:34:32.808Z,9.50
2018-03-06T23:37:01.047Z,9.50
2018-03-06T23:39:30.461Z,9.50
2018-03-06T23:42:01.605Z,9.50
2018-03-06T23:44:30.385Z,9.50
2018-03-06T23:46:59.381Z,9.50
2018-03-06T23:49:28.395Z,9.50
2018-03-06T23:51:56.741Z,9.50
2018-03-06T23:54:26.127Z,9.50
2018-03-06T23:56:54.360Z,9.50
2018-03-06T23:59:23.577Z,9.50
